Главная страница
METAR-TAF:

METAR-TAF

Аэропорты :

Тайпин

Харбин, Китай

широта: 45-45N, долгота: 126-46E, высота над уровнем моря: 143 м

Текущие метеонаблюдения

Эта сводка был подготовлена 15 минут назад, в 15:00 UTC
Ветер 4 Узел от южный-юго-западный
Температура -3°C
Влажность 74%
Давление 1003 hPa
Видимость 10 км и более
Нет облачности ниже 1500 м, и нет кучево-дождевой облачности

METAR: ZYHB 241500Z 21002MPS CAVOK M03/M07 Q1003 NOSIG

Время: 23:15 (15:15 UTC)

Прогноз

Эта сводка был подготовлена 6 часа и 5 минут назад, в 09:10 UTC
Прогноз действительный с 24-го 12 UTC до 25-го 12 UTC
Ветер 8 Узел от северный
Видимость: 6000 м
изменения
С 24-го 21 UTC до 24-го 23 UTC
Ветер 17 Узел от западный с порывами до 29 Узел

TAF: ZYHB 240910Z 2412/2512 36004MPS 6000 NSC TX08/2506Z TNM04/21Z BECMG 2421/2423 28009G15MPS

Метеонаблюдения и прогнозы для более 4000 аэропортов (сводки METAR и TAF).

Имеющиеся станции представлены на карте желтыми и красными точками.

Чтобы увидеть название станции, наведите на нее мышь.

Затем щелкните, чтобы увидеть метеонаблюдения и метеопрогнозы.

Управление картой: чтобы увеличить масштаб, щелкните зеленые кнопки с черным крестиком; чтобы уменьшить масштаб, щелкните зеленую кнопку с тире; для просмотра соседних карт щелкайте зеленые стрелки.


METAR-TAF: